Time;durP1;ratioP1;P1;durP2;ratioP2;P2;SDS_P1;SDS_P2;PMS_P1;PMS_P2;Temp;Humidity;BMP_temperature;BMP_pressure;BME280_temperature;BME280_humidity;BME280_pressure;Samples;Min_cycle;Max_cycle;Signal;HPM_P1;HPM_P2
2022/04/18 00:01:57;;;;;;;18.38;12.52;;;-0.40;99.90;;;;;;5072844;28;20562;-86
2022/04/18 00:04:22;;;;;;;22.92;13.90;;;-0.30;99.90;;;;;;5072884;28;20024;-87
2022/04/18 00:06:48;;;;;;;21.83;12.98;;;-0.40;99.90;;;;;;5073007;28;20483;-87
2022/04/18 00:09:14;;;;;;;20.23;13.45;;;-0.40;99.90;;;;;;5072466;28;20466;-86
2022/04/18 00:11:40;;;;;;;22.73;13.77;;;-0.40;99.90;;;;;;5072921;28;20028;-85
2022/04/18 00:14:06;;;;;;;21.70;14.52;;;-0.40;99.90;;;;;;5072311;28;20389;-87
2022/04/18 00:16:32;;;;;;;21.20;15.23;;;-0.50;99.90;;;;;;5054624;28;20028;-86
2022/04/18 00:18:57;;;;;;;26.90;15.82;;;-0.50;99.90;;;;;;5072465;28;20039;-86
2022/04/18 00:21:23;;;;;;;26.25;15.60;;;-0.50;99.90;;;;;;5055175;28;20090;-85
2022/04/18 00:23:49;;;;;;;26.05;15.00;;;-0.50;99.90;;;;;;5072206;28;20078;-84
2022/04/18 00:26:15;;;;;;;23.60;15.10;;;-0.50;99.90;;;;;;5072788;28;20078;-86
2022/04/18 00:28:40;;;;;;;22.73;14.98;;;-0.60;99.90;;;;;;5072708;28;20149;-87
2022/04/18 00:31:06;;;;;;;25.48;16.02;;;-0.60;99.90;;;;;;5072121;28;20064;-87
2022/04/18 00:33:33;;;;;;;28.40;16.42;;;-0.60;99.90;;;;;;5072400;28;20100;-86
2022/04/18 00:35:59;;;;;;;28.27;15.98;;;-0.70;99.90;;;;;;5053819;28;20166;-86
2022/04/18 00:38:25;;;;;;;26.95;15.75;;;-0.70;99.90;;;;;;5072699;28;20481;-85
2022/04/18 00:40:50;;;;;;;26.77;15.07;;;-0.80;99.90;;;;;;5071815;28;20028;-86
2022/04/18 00:43:16;;;;;;;26.58;16.27;;;-0.80;99.90;;;;;;5072459;28;20029;-86
2022/04/18 00:45:42;;;;;;;28.35;16.35;;;-0.80;99.90;;;;;;5054411;28;20021;-86
2022/04/18 00:48:07;;;;;;;24.17;16.85;;;-0.80;99.90;;;;;;5072546;28;20021;-87
2022/04/18 00:50:35;;;;;;;26.92;15.73;;;-0.80;99.90;;;;;;5050596;28;20025;-87
2022/04/18 00:53:03;;;;;;;26.33;15.45;;;-0.80;99.90;;;;;;5052195;28;20509;-85
2022/04/18 00:55:32;;;;;;;23.42;15.30;;;-0.80;99.90;;;;;;5068586;28;20028;-85
2022/04/18 00:58:00;;;;;;;31.17;16.27;;;-0.80;99.90;;;;;;5076154;28;20048;-86
2022/04/18 01:00:26;;;;;;;28.55;16.88;;;-0.90;99.90;;;;;;5075748;28;20048;-85
2022/04/18 01:02:51;;;;;;;31.55;15.35;;;-0.90;99.90;;;;;;5075996;28;20034;-85
2022/04/18 01:05:17;;;;;;;28.95;16.77;;;-0.90;99.90;;;;;;5075514;28;20025;-85
2022/04/18 01:07:44;;;;;;;29.17;17.05;;;-1.00;99.90;;;;;;5057964;28;20107;-86
2022/04/18 01:10:10;;;;;;;33.13;15.07;;;-1.00;99.90;;;;;;5075530;28;20024;-85
2022/04/18 01:12:36;;;;;;;25.67;14.82;;;-1.00;99.90;;;;;;5076043;28;20017;-87
2022/04/18 01:15:01;;;;;;;24.88;14.13;;;-1.10;99.90;;;;;;5075493;28;20133;-88
2022/04/18 01:17:27;;;;;;;23.17;12.98;;;-1.10;99.90;;;;;;5075640;28;20028;-85
2022/04/18 01:19:53;;;;;;;20.50;12.82;;;-1.20;99.90;;;;;;5057345;28;20527;-85
2022/04/18 01:22:19;;;;;;;23.75;13.15;;;-1.20;99.90;;;;;;5075950;28;20036;-86
2022/04/18 01:30:16;;;;;;;30.63;17.00;;;-1.20;99.90;;;;;;5075254;28;20149;-84
2022/04/18 01:32:42;;;;;;;31.92;16.63;;;-1.20;99.90;;;;;;5075487;28;20435;-85
2022/04/18 01:35:08;;;;;;;37.80;19.20;;;-1.20;99.90;;;;;;5075131;28;20027;-85
2022/04/18 01:37:36;;;;;;;35.30;17.27;;;-1.20;99.90;;;;;;5075718;28;20024;-87
2022/04/18 01:40:02;;;;;;;30.65;16.10;;;-1.20;99.90;;;;;;5075020;28;20470;-85
2022/04/18 01:42:28;;;;;;;37.53;16.48;;;-1.20;99.90;;;;;;5057792;28;20051;-85
2022/04/18 01:44:54;;;;;;;26.83;15.10;;;-1.20;99.90;;;;;;5075092;28;20028;-87
2022/04/18 01:47:20;;;;;;;33.58;17.00;;;-1.20;99.90;;;;;;5075358;28;20068;-86
2022/04/18 01:49:45;;;;;;;30.15;17.27;;;-1.10;99.90;;;;;;5075241;28;20025;-87
2022/04/18 01:52:11;;;;;;;33.45;16.75;;;-1.10;99.90;;;;;;5075318;28;20027;-87
2022/04/18 01:54:36;;;;;;;30.13;16.63;;;-1.10;99.90;;;;;;5074664;28;20025;-86
2022/04/18 01:57:02;;;;;;;27.15;15.52;;;-1.10;99.90;;;;;;5075044;28;20033;-86
2022/04/18 01:59:28;;;;;;;31.45;18.17;;;-1.10;99.90;;;;;;5074410;28;20044;-87
2022/04/18 02:01:53;;;;;;;18.20;12.73;;;-1.10;99.90;;;;;;5056639;28;20028;-86
2022/04/18 02:04:19;;;;;;;22.00;12.57;;;-1.10;99.90;;;;;;5074333;28;20115;-85
2022/04/18 02:06:44;;;;;;;17.20;11.93;;;-1.10;99.90;;;;;;5074620;28;20044;-85
2022/04/18 02:09:11;;;;;;;22.25;12.18;;;-1.10;99.90;;;;;;5073968;28;20032;-86
2022/04/18 02:11:37;;;;;;;24.27;14.05;;;-1.10;99.90;;;;;;5074959;28;20028;-86
2022/04/18 02:14:03;;;;;;;22.27;12.23;;;-1.10;99.90;;;;;;5056508;28;20020;-86
2022/04/18 02:16:28;;;;;;;23.08;12.77;;;-1.10;99.90;;;;;;5073712;28;20024;-85
2022/04/18 02:18:55;;;;;;;22.67;13.05;;;-1.10;99.90;;;;;;5074128;28;20055;-86
2022/04/18 02:21:21;;;;;;;21.55;10.85;;;-1.10;99.90;;;;;;5074778;28;20474;-86
2022/04/18 02:23:46;;;;;;;17.13;11.60;;;-1.20;99.90;;;;;;5056627;28;20059;-86
2022/04/18 02:26:12;;;;;;;21.38;13.10;;;-1.20;99.90;;;;;;5056357;28;20023;-86
2022/04/18 02:28:38;;;;;;;18.13;11.88;;;-1.10;99.90;;;;;;5074489;28;20052;-86
2022/04/18 02:31:04;;;;;;;18.23;12.20;;;-1.10;99.90;;;;;;5074113;28;20020;-85
2022/04/18 02:33:30;;;;;;;19.08;11.27;;;-1.10;99.90;;;;;;5074841;28;20137;-85
2022/04/18 02:35:56;;;;;;;20.90;12.48;;;-1.00;99.90;;;;;;5074087;28;20170;-86
2022/04/18 02:38:21;;;;;;;26.42;13.25;;;-0.90;99.90;;;;;;5074498;28;20036;-86
2022/04/18 02:40:47;;;;;;;17.20;11.50;;;-0.90;99.90;;;;;;5073671;28;20035;-84
2022/04/18 02:43:12;;;;;;;18.88;10.75;;;-0.80;99.90;;;;;;5074178;28;20024;-86
2022/04/18 02:45:38;;;;;;;17.48;11.25;;;-0.80;99.90;;;;;;5073816;28;20028;-85
2022/04/18 02:48:04;;;;;;;17.65;10.52;;;-0.70;99.90;;;;;;5073774;28;20047;-87
2022/04/18 02:50:30;;;;;;;16.40;11.15;;;-0.60;99.90;;;;;;5073716;28;20065;-85
2022/04/18 02:52:56;;;;;;;20.08;10.75;;;-0.60;99.90;;;;;;5056215;28;20020;-85
2022/04/18 02:55:23;;;;;;;17.60;10.15;;;-0.50;99.90;;;;;;5055571;28;20025;-85
2022/04/18 02:57:49;;;;;;;15.82;10.55;;;-0.40;99.90;;;;;;5073851;28;20100;-87
2022/04/18 03:00:15;;;;;;;17.65;10.32;;;-0.40;99.90;;;;;;5073058;28;20574;-85
2022/04/18 03:02:41;;;;;;;16.77;11.27;;;-0.40;99.90;;;;;;5073849;28;20095;-86
2022/04/18 03:05:08;;;;;;;17.08;11.55;;;-0.30;99.90;;;;;;5073349;28;20108;-85
2022/04/18 03:07:34;;;;;;;20.02;12.00;;;-0.30;99.90;;;;;;5073685;28;20029;-85
2022/04/18 03:10:00;;;;;;;19.00;12.43;;;-0.30;99.90;;;;;;5073219;28;20095;-85
2022/04/18 03:12:26;;;;;;;14.77;8.10;;;-0.40;99.90;;;;;;5073346;28;20017;-86
2022/04/18 03:14:52;;;;;;;9.25;6.63;;;0.20;99.90;;;;;;5073057;28;20025;-84
2022/04/18 03:17:18;;;;;;;7.75;6.20;;;1.00;89.40;;;;;;5072832;28;20029;-84
2022/04/18 03:19:44;;;;;;;9.07;6.28;;;1.30;87.70;;;;;;5072818;28;20039;-87
2022/04/18 03:22:09;;;;;;;8.50;6.03;;;1.60;88.80;;;;;;5073465;28;20033;-86
2022/04/18 03:24:35;;;;;;;11.38;6.00;;;1.70;89.20;;;;;;5072908;28;20108;-85
2022/04/18 03:27:02;;;;;;;9.80;7.00;;;1.90;89.70;;;;;;5073340;28;20035;-85
2022/04/18 03:29:28;;;;;;;8.65;6.35;;;1.90;89.40;;;;;;5072921;28;20422;-87
2022/04/18 03:31:54;;;;;;;10.02;6.15;;;2.00;90.50;;;;;;5073168;28;20381;-83
2022/04/18 03:34:20;;;;;;;10.38;6.43;;;2.00;91.80;;;;;;5072695;28;20025;-84
2022/04/18 03:42:14;;;;;;;9.15;6.97;;;1.90;99.90;;;;;;5073449;28;20031;-82
2022/04/18 03:44:42;;;;;;;10.82;8.15;;;1.80;99.90;;;;;;5072449;28;20020;-82
2022/04/18 03:47:09;;;;;;;11.20;7.72;;;1.70;99.90;;;;;;5072954;28;20050;-82
2022/04/18 03:49:35;;;;;;;10.50;7.60;;;1.50;99.90;;;;;;5072389;28;20107;-84
2022/04/18 03:52:00;;;;;;;14.95;8.48;;;1.40;99.90;;;;;;5054883;28;20422;-84
2022/04/18 03:54:26;;;;;;;11.32;7.63;;;1.30;99.90;;;;;;5054658;28;20016;-84
2022/04/18 03:56:52;;;;;;;11.10;8.18;;;1.20;99.90;;;;;;5073190;28;20029;-86
2022/04/18 03:59:18;;;;;;;11.23;7.68;;;1.10;99.90;;;;;;5072326;28;20043;-87
2022/04/18 04:01:44;;;;;;;8.27;6.82;;;1.10;99.90;;;;;;5073283;28;20025;-85
2022/04/18 04:04:09;;;;;;;9.82;7.38;;;1.10;99.90;;;;;;5072255;28;20028;-88
2022/04/18 04:06:35;;;;;;;10.30;7.13;;;1.20;99.90;;;;;;5073323;28;20096;-84
2022/04/18 04:09:00;;;;;;;9.20;7.50;;;1.20;99.90;;;;;;5072790;28;20079;-85
2022/04/18 04:11:26;;;;;;;11.85;7.93;;;1.20;99.90;;;;;;5055321;28;20028;-86
2022/04/18 04:13:52;;;;;;;12.82;8.35;;;1.20;99.90;;;;;;5072391;28;20045;-88
2022/04/18 04:16:18;;;;;;;10.57;8.50;;;1.20;99.90;;;;;;5072570;28;20096;-85
2022/04/18 04:18:44;;;;;;;10.63;6.90;;;1.20;99.90;;;;;;5054567;28;20070;-84
2022/04/18 04:21:10;;;;;;;8.65;7.72;;;1.20;99.90;;;;;;5072182;28;20054;-86
2022/04/18 04:23:35;;;;;;;11.05;6.55;;;1.30;99.90;;;;;;5072830;28;20496;-85
2022/04/18 04:26:01;;;;;;;8.57;6.10;;;1.40;99.90;;;;;;5072193;28;20463;-86
2022/04/18 04:28:26;;;;;;;7.63;6.65;;;1.50;94.60;;;;;;5073702;28;20082;-85
2022/04/18 04:30:52;;;;;;;11.48;6.15;;;1.70;86.90;;;;;;5076366;28;20389;-85
2022/04/18 04:33:18;;;;;;;8.00;6.75;;;1.90;83.40;;;;;;5058667;28;20107;-82
2022/04/18 04:35:43;;;;;;;9.63;5.40;;;2.10;79.30;;;;;;5076236;28;20044;-82
2022/04/18 04:38:10;;;;;;;10.55;7.55;;;2.20;75.80;;;;;;5076276;28;20028;-82
2022/04/18 04:40:36;;;;;;;11.15;7.13;;;2.40;75.00;;;;;;5075756;28;20029;-82
2022/04/18 04:43:02;;;;;;;11.35;6.57;;;2.60;73.70;;;;;;5076167;28;20089;-83
2022/04/18 04:45:27;;;;;;;10.80;6.38;;;2.70;71.80;;;;;;5075657;28;20052;-86
2022/04/18 04:47:53;;;;;;;8.98;6.10;;;2.90;72.80;;;;;;5076312;28;20062;-86
2022/04/18 04:50:19;;;;;;;11.20;7.13;;;3.00;71.20;;;;;;5075972;28;20025;-84
2022/04/18 04:52:45;;;;;;;15.85;7.47;;;3.10;70.00;;;;;;5058098;28;20107;-84
2022/04/18 04:55:11;;;;;;;9.38;6.93;;;3.20;69.20;;;;;;5075989;28;20095;-85
2022/04/18 04:57:37;;;;;;;10.10;7.63;;;3.30;67.80;;;;;;5076152;28;20028;-85
2022/04/18 05:00:04;;;;;;;10.68;6.18;;;3.40;67.80;;;;;;5075571;28;20067;-82
2022/04/18 05:02:29;;;;;;;10.82;6.80;;;3.40;67.00;;;;;;5075839;28;20367;-82
2022/04/18 05:04:55;;;;;;;11.80;7.03;;;3.40;67.40;;;;;;5075475;28;20030;-82
2022/04/18 05:07:21;;;;;;;11.88;7.35;;;3.30;66.60;;;;;;5057970;28;20016;-82
2022/04/18 05:09:47;;;;;;;15.73;8.52;;;3.20;66.30;;;;;;5075322;28;20099;-85
2022/04/18 05:12:12;;;;;;;10.15;7.95;;;3.20;67.90;;;;;;5075890;28;20025;-82
2022/04/18 05:14:38;;;;;;;14.95;6.43;;;3.20;67.90;;;;;;5075633;28;20017;-82
2022/04/18 05:17:04;;;;;;;10.45;6.63;;;3.20;67.60;;;;;;5075953;28;20458;-83
2022/04/18 05:19:30;;;;;;;13.90;7.50;;;3.20;68.50;;;;;;5068442;28;20072;-84
2022/04/18 05:21:58;;;;;;;12.48;8.10;;;3.20;68.60;;;;;;5054174;28;20029;-83
2022/04/18 05:24:24;;;;;;;14.23;8.63;;;3.20;69.50;;;;;;5059079;28;20033;-82
2022/04/18 05:26:49;;;;;;;15.30;8.90;;;3.10;70.00;;;;;;5056595;28;20354;-84
2022/04/18 05:29:15;;;;;;;15.00;8.90;;;3.10;70.00;;;;;;5074131;28;20121;-82
2022/04/18 05:31:40;;;;;;;14.57;8.50;;;3.10;70.30;;;;;;5074015;28;20021;-84
2022/04/18 05:34:06;;;;;;;14.48;8.32;;;3.20;70.40;;;;;;5073158;28;20075;-82
2022/04/18 05:36:32;;;;;;;17.40;9.77;;;3.30;70.80;;;;;;5056368;28;20023;-82
2022/04/18 05:38:57;;;;;;;18.20;10.55;;;3.50;70.20;;;;;;5073088;28;20024;-84
2022/04/18 05:41:24;;;;;;;15.98;9.57;;;3.70;70.50;;;;;;5073989;28;20021;-82
2022/04/18 05:43:50;;;;;;;12.82;8.90;;;3.90;69.40;;;;;;5073681;28;20030;-82
2022/04/18 05:46:16;;;;;;;13.57;8.82;;;4.00;68.90;;;;;;5072972;28;20036;-81
2022/04/18 05:48:42;;;;;;;13.82;9.38;;;4.20;67.50;;;;;;5074514;28;20027;-82
2022/04/18 05:51:08;;;;;;;18.25;10.32;;;4.40;66.30;;;;;;5073704;28;20371;-82
2022/04/18 05:53:34;;;;;;;15.88;9.93;;;4.40;67.10;;;;;;5074407;28;20055;-83
2022/04/18 05:56:00;;;;;;;15.73;9.88;;;4.40;66.30;;;;;;5073511;28;20039;-82
2022/04/18 05:58:26;;;;;;;12.68;7.20;;;4.40;66.70;;;;;;5056284;28;20382;-82
2022/04/18 06:00:52;;;;;;;11.77;9.07;;;4.10;66.40;;;;;;5072030;28;20048;-84
2022/04/18 06:03:18;;;;;;;18.38;9.93;;;4.00;67.20;;;;;;5055822;28;20028;-81
2022/04/18 06:05:44;;;;;;;18.13;10.23;;;3.90;68.10;;;;;;5055331;28;20028;-83
2022/04/18 06:08:09;;;;;;;20.17;10.73;;;4.00;68.70;;;;;;5073615;28;20047;-82
2022/04/18 06:10:40;;;;;;;16.33;10.00;;;4.00;68.40;;;;;;5072057;28;20588;-82
2022/04/18 06:13:08;;;;;;;14.98;9.73;;;4.00;68.70;;;;;;5055886;28;20024;-82
2022/04/18 06:15:34;;;;;;;16.63;10.98;;;4.20;69.30;;;;;;5054686;28;20535;-82
2022/04/18 06:18:00;;;;;;;17.98;10.30;;;4.10;68.20;;;;;;5073592;28;20025;-82
2022/04/18 06:20:26;;;;;;;17.30;10.63;;;4.20;68.10;;;;;;5072876;28;20048;-82
2022/04/18 06:22:52;;;;;;;14.02;9.50;;;4.10;67.90;;;;;;5055648;28;20107;-82
2022/04/18 06:25:18;;;;;;;15.18;9.38;;;4.10;67.70;;;;;;5072570;28;20079;-84
2022/04/18 06:27:43;;;;;;;15.63;9.68;;;4.20;67.60;;;;;;5072759;28;20020;-83
2022/04/18 06:30:09;;;;;;;16.40;9.25;;;4.20;68.10;;;;;;5071490;28;20112;-82
2022/04/18 06:32:38;;;;;;;14.27;8.82;;;4.30;68.40;;;;;;5073241;28;20026;-82
2022/04/18 06:35:05;;;;;;;12.93;8.48;;;4.40;68.60;;;;;;5071837;28;20394;-84
2022/04/18 06:37:32;;;;;;;14.88;8.77;;;4.60;67.90;;;;;;5073434;28;20103;-82
2022/04/18 06:39:58;;;;;;;15.02;8.63;;;4.70;67.00;;;;;;5053980;28;20025;-85
2022/04/18 06:42:23;;;;;;;13.20;8.25;;;5.00;66.20;;;;;;5073390;28;20025;-85
2022/04/18 06:44:49;;;;;;;12.40;7.97;;;5.10;64.70;;;;;;5071262;28;20024;-85
2022/04/18 06:47:15;;;;;;;10.35;7.15;;;5.30;63.50;;;;;;5073188;28;20379;-82
2022/04/18 06:49:41;;;;;;;13.65;7.88;;;5.60;64.00;;;;;;5072765;28;20013;-85
2022/04/18 06:52:07;;;;;;;13.32;7.50;;;5.70;63.50;;;;;;5070878;28;20036;-84
2022/04/18 06:54:33;;;;;;;12.30;7.68;;;5.80;62.60;;;;;;5054540;28;20052;-84
2022/04/18 06:56:59;;;;;;;11.57;7.05;;;6.00;63.40;;;;;;5071361;28;20040;-84
2022/04/18 06:59:25;;;;;;;11.13;7.47;;;6.20;62.80;;;;;;5071738;28;20497;-82
2022/04/18 07:01:51;;;;;;;12.45;7.35;;;6.40;61.50;;;;;;5070903;28;20390;-83
2022/04/18 07:04:17;;;;;;;11.13;7.30;;;6.50;60.80;;;;;;5071903;28;20031;-84
2022/04/18 07:06:43;;;;;;;8.52;6.78;;;6.70;58.80;;;;;;5062070;28;20487;-83
2022/04/18 07:09:09;;;;;;;9.90;6.45;;;6.90;58.20;;;;;;5071171;28;20032;-85
2022/04/18 07:11:35;;;;;;;8.50;5.78;;;7.10;57.80;;;;;;5062346;28;20363;-83
2022/04/18 07:14:00;;;;;;;10.45;6.10;;;7.30;55.10;;;;;;5061478;28;20024;-85
2022/04/18 07:16:29;;;;;;;6.25;4.45;;;7.40;54.00;;;;;;5071980;28;20086;-83
2022/04/18 07:18:56;;;;;;;4.03;3.60;;;7.40;52.50;;;;;;5053726;28;20025;-84
2022/04/18 07:21:22;;;;;;;4.75;3.33;;;7.40;50.80;;;;;;5071890;28;20120;-84
2022/04/18 07:23:48;;;;;;;6.22;4.15;;;7.40;50.70;;;;;;5071689;28;20099;-85
2022/04/18 07:26:13;;;;;;;8.82;5.57;;;7.30;51.10;;;;;;5072326;28;20063;-85
2022/04/18 07:28:39;;;;;;;6.05;3.67;;;7.30;51.40;;;;;;5054467;28;20094;-85
2022/04/18 07:31:06;;;;;;;6.13;4.43;;;7.50;50.70;;;;;;5067632;28;20046;-83
2022/04/18 07:33:33;;;;;;;5.25;3.45;;;7.40;49.80;;;;;;5071821;28;20446;-87
2022/04/18 07:35:59;;;;;;;4.95;3.45;;;7.60;49.40;;;;;;5067854;28;20071;-83
2022/04/18 07:41:09;;;;;;;4.68;4.10;;;7.40;46.60;;;;;;5070987;28;20125;-85
2022/04/18 07:43:35;;;;;;;4.13;3.20;;;7.40;47.40;;;;;;5072112;28;20458;-83
2022/04/18 07:46:03;;;;;;;6.65;4.38;;;7.60;48.00;;;;;;5069682;28;20144;-85
2022/04/18 07:48:32;;;;;;;4.65;2.70;;;7.80;48.80;;;;;;5071776;28;20028;-84
2022/04/18 07:53:42;;;;;;;5.20;2.90;;;7.40;45.50;;;;;;5069490;28;20085;-86
2022/04/18 07:56:09;;;;;;;4.40;3.42;;;7.60;45.60;;;;;;5059297;28;20033;-84
2022/04/18 07:58:34;;;;;;;3.80;2.85;;;7.50;47.00;;;;;;5069378;28;20032;-84
2022/04/18 08:01:00;;;;;;;6.00;3.85;;;7.30;45.90;;;;;;5069469;28;20410;-87
2022/04/18 08:03:26;;;;;;;5.72;3.58;;;7.40;46.10;;;;;;5070644;28;20025;-83
2022/04/18 08:05:54;;;;;;;3.65;2.35;;;7.60;45.90;;;;;;5071173;28;20081;-83
2022/04/18 08:08:20;;;;;;;4.70;3.10;;;7.60;45.30;;;;;;5071758;28;20127;-84
2022/04/18 08:10:46;;;;;;;5.18;3.00;;;7.70;44.60;;;;;;5071624;28;20052;-86
2022/04/18 08:13:11;;;;;;;5.25;3.40;;;7.50;44.70;;;;;;5071238;28;20044;-86
2022/04/18 08:15:37;;;;;;;3.47;3.08;;;7.50;44.60;;;;;;5070276;28;20020;-83
2022/04/18 08:18:03;;;;;;;3.58;2.90;;;7.30;45.30;;;;;;5071245;28;20080;-84
2022/04/18 08:20:29;;;;;;;5.90;4.20;;;7.50;44.80;;;;;;5071361;28;20047;-84
2022/04/18 08:22:55;;;;;;;4.10;2.95;;;7.60;43.90;;;;;;5070991;28;20029;-86
2022/04/18 08:25:20;;;;;;;4.07;1.85;;;7.90;44.50;;;;;;5071382;28;20044;-83
2022/04/18 08:27:46;;;;;;;3.17;2.25;;;7.70;42.90;;;;;;5053304;28;20497;-83
2022/04/18 08:30:11;;;;;;;3.67;2.33;;;7.50;42.10;;;;;;5070817;28;20024;-84
2022/04/18 08:32:41;;;;;;;4.50;2.95;;;7.50;41.40;;;;;;5071298;28;20028;-83
2022/04/18 08:35:08;;;;;;;5.03;2.90;;;7.50;41.80;;;;;;5071217;28;20020;-84
2022/04/18 08:37:34;;;;;;;3.83;3.10;;;7.40;43.00;;;;;;5071426;28;20502;-84
2022/04/18 08:40:01;;;;;;;3.28;2.97;;;7.20;42.60;;;;;;5070852;28;20064;-83
2022/04/18 08:42:33;;;;;;;3.80;3.45;;;7.40;43.30;;;;;;5071665;28;20033;-83
2022/04/18 08:45:01;;;;;;;3.72;3.05;;;7.30;43.90;;;;;;5069934;28;20488;-86
2022/04/18 08:52:56;;;;;;;5.10;4.35;;;7.50;44.30;;;;;;5070040;28;20108;-85
2022/04/18 08:55:23;;;;;;;4.95;4.28;;;7.20;44.30;;;;;;5071133;28;20438;-83
2022/04/18 08:57:48;;;;;;;10.45;4.97;;;7.20;45.10;;;;;;5070795;28;20036;-85
2022/04/18 09:00:14;;;;;;;3.60;3.03;;;7.10;45.50;;;;;;5070405;28;20498;-85
2022/04/18 09:02:40;;;;;;;5.65;3.63;;;7.10;43.90;;;;;;5070574;28;20449;-83
2022/04/18 09:05:11;;;;;;;13.68;8.20;;;7.10;43.00;;;;;;5070661;28;20025;-83
2022/04/18 09:07:40;;;;;;;14.77;10.70;;;7.20;44.20;;;;;;5053377;28;20436;-83
2022/04/18 09:10:07;;;;;;;5.32;4.40;;;7.20;45.30;;;;;;5051953;28;20024;-84
2022/04/18 09:12:33;;;;;;;8.65;5.75;;;7.10;45.50;;;;;;5071174;28;20413;-84
2022/04/18 09:14:59;;;;;;;5.80;4.80;;;7.30;46.00;;;;;;5069073;28;20016;-83
2022/04/18 09:17:32;;;;;;;5.80;3.53;;;7.30;45.50;;;;;;5074962;28;20033;-87
2022/04/18 09:20:13;;;;;;;5.60;4.55;;;7.30;43.50;;;;;;5074081;28;20041;-86
2022/04/18 09:22:47;;;;;;;8.30;4.85;;;7.40;44.50;;;;;;5056033;28;20039;-83
2022/04/18 09:25:22;;;;;;;5.35;4.63;;;7.20;45.80;;;;;;5074421;28;20028;-83
2022/04/18 09:27:58;;;;;;;5.63;4.80;;;7.10;45.60;;;;;;5073604;28;20044;-83
2022/04/18 09:30:30;;;;;;;5.55;3.95;;;7.10;46.20;;;;;;5074655;28;20385;-86
2022/04/18 09:32:57;;;;;;;4.75;4.05;;;7.10;45.90;;;;;;5074114;28;20064;-83
2022/04/18 09:35:27;;;;;;;5.20;4.43;;;7.30;45.70;;;;;;5073093;28;20027;-83
2022/04/18 09:37:53;;;;;;;5.78;4.47;;;7.70;45.20;;;;;;5073182;28;20086;-84
2022/04/18 09:40:23;;;;;;;9.02;4.05;;;8.10;44.40;;;;;;5073680;28;20032;-85
2022/04/18 09:42:51;;;;;;;8.82;4.68;;;8.50;43.90;;;;;;5070280;28;20102;-84
2022/04/18 09:45:18;;;;;;;6.28;4.38;;;8.80;43.60;;;;;;5073294;28;20062;-84
2022/04/18 09:47:43;;;;;;;4.63;3.03;;;8.70;43.70;;;;;;5060634;28;20029;-84
2022/04/18 09:53:21;;;;;;;6.10;3.70;;;8.10;43.30;;;;;;5074497;28;20062;-88
2022/04/18 09:55:49;;;;;;;7.00;3.70;;;7.90;44.00;;;;;;5074073;28;20025;-84
2022/04/18 09:58:15;;;;;;;6.53;4.00;;;7.70;44.80;;;;;;5073513;28;20032;-87
2022/04/18 10:00:41;;;;;;;4.75;3.80;;;7.50;44.60;;;;;;5055039;28;20085;-83
2022/04/18 10:03:08;;;;;;;4.70;3.80;;;7.50;44.60;;;;;;5069145;28;20041;-86
2022/04/18 10:05:34;;;;;;;5.90;4.60;;;7.40;44.60;;;;;;5055005;28;20028;-86
2022/04/18 10:08:03;;;;;;;11.63;6.93;;;7.40;44.70;;;;;;5071561;28;20044;-87
2022/04/18 10:10:33;;;;;;;7.05;4.90;;;7.30;45.30;;;;;;5073093;28;20036;-86
2022/04/18 10:12:59;;;;;;;6.47;3.75;;;7.30;45.60;;;;;;5070849;28;20036;-86
2022/04/18 10:15:27;;;;;;;5.72;4.00;;;7.20;45.40;;;;;;5054494;28;20103;-86
2022/04/18 10:17:53;;;;;;;6.82;5.07;;;7.40;45.50;;;;;;5068539;28;20051;-83
2022/04/18 10:20:53;;;;;;;53.90;22.55;;;7.70;43.60;;;;;;5072404;28;20032;-86
2022/04/18 10:23:41;;;;;;;8.85;4.85;;;8.20;42.90;;;;;;5032289;28;20258;-87
2022/04/18 10:26:28;;;;;;;13.43;5.88;;;8.70;41.90;;;;;;5072360;28;20032;-88
2022/04/18 10:28:56;;;;;;;67.78;29.80;;;9.00;41.60;;;;;;5070436;28;20040;-86
2022/04/18 10:31:29;;;;;;;28.98;14.90;;;9.50;42.50;;;;;;5072421;28;20055;-88
2022/04/18 10:33:59;;;;;;;21.35;11.88;;;9.80;40.50;;;;;;5067389;28;20060;-85
2022/04/18 10:36:27;;;;;;;6.45;4.28;;;10.00;41.30;;;;;;5071480;28;20024;-89
2022/04/18 10:38:56;;;;;;;6.53;4.60;;;9.70;40.40;;;;;;5070840;28;20093;-85
2022/04/18 10:41:39;;;;;;;4.85;4.30;;;9.10;40.70;;;;;;5051453;28;20033;-88
2022/04/18 10:44:17;;;;;;;;;;;8.60;41.70;;;;;;5059585;28;20116;-89
2022/04/18 10:47:03;;;;;;;6.20;4.38;;;8.40;42.80;;;;;;5072509;28;19999;-84
2022/04/18 10:49:33;;;;;;;12.32;5.45;;;8.00;43.10;;;;;;5071821;28;20075;-84
2022/04/18 10:52:08;;;;;;;5.47;4.28;;;8.20;43.80;;;;;;5050479;28;20016;-89
2022/04/18 10:54:35;;;;;;;8.55;6.47;;;8.20;43.70;;;;;;5053759;28;20032;-88
2022/04/18 10:57:03;;;;;;;10.63;4.80;;;8.10;43.70;;;;;;5052982;28;20126;-84
2022/04/18 10:59:32;;;;;;;7.88;4.57;;;8.00;43.60;;;;;;5070002;28;20075;-83
2022/04/18 11:02:01;;;;;;;5.10;3.35;;;8.00;43.80;;;;;;5070559;28;20028;-88
2022/04/18 11:04:33;;;;;;;7.20;5.32;;;7.90;43.50;;;;;;5052350;28;20099;-88
2022/04/18 11:07:06;;;;;;;6.57;5.05;;;7.90;43.80;;;;;;5052803;28;20024;-89
2022/04/18 11:09:41;;;;;;;6.78;4.65;;;7.80;43.60;;;;;;5070207;28;20089;-88
2022/04/18 11:12:16;;;;;;;5.38;3.50;;;8.00;43.60;;;;;;5053221;28;20040;-84
2022/04/18 11:14:47;;;;;;;4.53;4.05;;;8.10;42.60;;;;;;5072336;28;20036;-88
2022/04/18 11:17:44;;;;;;;6.43;4.13;;;8.20;42.00;;;;;;5054599;28;20120;-84
2022/04/18 11:20:26;;;;;;;4.68;3.30;;;8.30;41.40;;;;;;5053357;28;20072;-84
2022/04/18 11:23:20;;;;;;;5.05;4.22;;;8.60;39.80;;;;;;5072007;28;20378;-88
2022/04/18 11:26:03;;;;;;;7.15;3.83;;;9.00;39.50;;;;;;5072492;28;20017;-83
2022/04/18 11:28:37;;;;;;;4.82;4.32;;;9.00;39.30;;;;;;5048530;28;20059;-88
2022/04/18 11:31:10;;;;;;;12.82;8.55;;;8.80;39.10;;;;;;5054497;28;20029;-90
2022/04/18 11:33:43;;;;;;;5.35;3.53;;;8.40;40.30;;;;;;5071354;28;20097;-87
2022/04/18 11:36:10;;;;;;;5.70;4.57;;;8.20;41.00;;;;;;5072151;28;20055;-87
2022/04/18 11:38:36;;;;;;;6.60;4.10;;;8.30;41.40;;;;;;5071203;28;20032;-88
2022/04/18 11:41:09;;;;;;;6.40;5.10;;;8.10;42.20;;;;;;5071411;28;20040;-89
2022/04/18 11:43:35;;;;;;;6.60;4.95;;;8.00;42.10;;;;;;5070925;28;20024;-84
2022/04/18 11:46:09;;;;;;;12.48;7.90;;;8.20;42.80;;;;;;5072156;28;20066;-84
2022/04/18 11:48:36;;;;;;;5.15;3.92;;;8.10;42.40;;;;;;5072155;28;20024;-84
2022/04/18 11:51:02;;;;;;;6.40;4.63;;;8.00;42.10;;;;;;5071719;28;20040;-84
2022/04/18 11:53:32;;;;;;;5.35;3.45;;;8.40;42.90;;;;;;5072107;28;20376;-88
2022/04/18 11:56:02;;;;;;;4.22;3.13;;;8.70;42.10;;;;;;5071582;28;20105;-84
2022/04/18 11:58:28;;;;;;;8.85;6.05;;;8.90;40.30;;;;;;5072129;28;20031;-88
2022/04/18 12:09:14;;;;;;;6.50;4.13;;;8.40;39.60;;;;;;5071845;28;20039;-82
2022/04/18 12:11:41;;;;;;;7.63;4.18;;;8.40;40.70;;;;;;5054014;28;20024;-84
2022/04/18 12:14:07;;;;;;;5.35;4.43;;;8.50;41.50;;;;;;5070792;28;20363;-86
2022/04/18 12:16:33;;;;;;;7.47;4.90;;;8.40;41.70;;;;;;5072009;28;20025;-88
2022/04/18 12:18:59;;;;;;;4.03;3.20;;;8.40;41.50;;;;;;5071418;28;20033;-86
2022/04/18 12:21:26;;;;;;;4.57;3.65;;;8.20;41.30;;;;;;5054150;28;20376;-89
2022/04/18 12:23:54;;;;;;;4.20;3.38;;;8.30;41.50;;;;;;5071474;28;20012;-85
2022/04/18 12:26:19;;;;;;;5.43;3.63;;;8.20;40.80;;;;;;5050385;28;20021;-85
2022/04/18 12:28:45;;;;;;;5.22;4.28;;;8.30;41.00;;;;;;5051183;28;20131;-86
2022/04/18 12:31:11;;;;;;;10.88;5.18;;;8.40;41.30;;;;;;5051405;28;20035;-88
2022/04/18 12:33:48;;;;;;;7.28;4.80;;;8.30;41.40;;;;;;5054626;28;20059;-88
2022/04/18 12:36:30;;;;;;;11.80;4.60;;;8.60;41.90;;;;;;5054410;28;20017;-89
2022/04/18 12:38:56;;;;;;;6.55;3.90;;;8.70;42.10;;;;;;5047882;28;20120;-88
2022/04/18 12:41:33;;;;;;;5.82;3.28;;;8.60;41.40;;;;;;5071300;28;20115;-84
2022/04/18 12:43:59;;;;;;;7.53;4.32;;;8.80;41.20;;;;;;5070957;28;20555;-88
2022/04/18 12:46:29;;;;;;;6.13;3.83;;;8.80;40.60;;;;;;5070634;28;20025;-85
2022/04/18 12:48:55;;;;;;;6.15;3.63;;;8.80;40.40;;;;;;5071061;28;20115;-88
2022/04/18 12:51:35;;;;;;;3.75;3.17;;;8.80;39.90;;;;;;5072552;28;20123;-89
2022/04/18 12:54:01;;;;;;;5.68;3.80;;;9.00;40.20;;;;;;5074237;28;20040;-88
2022/04/18 12:56:28;;;;;;;3.90;3.10;;;9.20;40.10;;;;;;5057285;28;20028;-88
2022/04/18 12:58:53;;;;;;;5.10;3.67;;;9.10;40.20;;;;;;5056700;28;20041;-88
2022/04/18 13:01:26;;;;;;;4.90;3.67;;;9.00;40.00;;;;;;5074747;28;20467;-85
2022/04/18 13:03:54;;;;;;;9.18;4.72;;;9.10;40.60;;;;;;5057187;28;20027;-89
2022/04/18 13:06:30;;;;;;;5.50;3.90;;;9.10;40.60;;;;;;5057239;28;20514;-85
2022/04/18 13:09:06;;;;;;;4.50;4.05;;;8.90;40.60;;;;;;5074066;28;20025;-88
2022/04/18 13:11:45;;;;;;;3.38;2.92;;;8.70;40.70;;;;;;5074642;28;20021;-89
2022/04/18 13:14:13;;;;;;;4.32;3.58;;;8.60;40.50;;;;;;5074304;28;20033;-85
2022/04/18 13:16:40;;;;;;;7.05;3.92;;;8.70;40.60;;;;;;5074383;28;20024;-89
2022/04/18 13:19:12;;;;;;;6.88;3.75;;;8.90;40.40;;;;;;5074453;28;20031;-88
2022/04/18 13:21:40;;;;;;;5.40;3.20;;;9.10;40.80;;;;;;5074135;28;20039;-84